Airfield :
LOGIN :

Register | Disclaimer

   EN    FR    IT 

 










Legend :    VFR   Marginal VFR   IFR   Intensive IFR   Very Intensive IFR
Visi :
Ceiling :
>= 8 km
>= 3000ft
5 to 8 km
1000 to 3000 ft
1500m to 5 km
500 to 1000 ft
800 to 1500m
200 to 500 ft
< 800m
< 200 ft
Symbols :   Thunderstorms  Fog  Heavy snow  Heavy precipitations  Wind > 20 kt
SIGMETs :     Misc.  Thunderstorms  Icing  Turbulence  Mountain Waves  Volcanic Ashes







- Airport Elevation : 33 ft
- IATA code : MHZ


EGUN - RAF Mildenhall

CURRENT METAR :
  • 190756Z AUTO 26011KT 9999 BKN025 OVC036 20/19 A3018 RMK AO2 CIG 025V036 BKN V SCT CIG 024 RWY11 SLP223 T01970189 $

EXPIRED METARs :
  • 190741Z AUTO 26010KT 9999 SCT023 BKN029 20/19 A3017 RMK AO2 CIG 029V041 BKN V SCT SLP219 $
  • 190656Z AUTO 26010KT 9999 FEW020 SCT030 20/20 A3016 RMK AO2 SLP216 T01950195 $
  • 190646Z AUTO 25009KT 9999 SCT029 19/19 A3016 RMK AO2 SLP216 $
  • 190631Z AUTO 25011KT 9999 BKN030 18/18 A3016 RMK AO2 SLP216 $
  • 190611Z AUTO 25010KT 9999 SCT032 19/19 A3016 RMK AO2 SLP216 $
  • 190556Z AUTO 25011KT 9999 BKN031 18/18 A3015 RMK AO2 SLP213 60000 T01810181 10181 20172 52015 $

TAF TAF EGUN
Valid from the 19 at 04:00 until the 20 at 10:00 UTC


190407Z 1904/2010 24012KT 9999 BKN020 QNH3009INS
BECMG 1907/1908 29009KT 9999 BKN015 QNH3015INS
BECMG 1914/1915 23010G15KT 9999 BKN025 QNH3014INS
BECMG 1920/1921 24009KT 9999 SCT035 QNH3012INS
BECMG 2003/2004 25012G20KT 9999 BKN030 QNH3009INS TX25/1915Z TN14/2003Z
No reported NOTAMs for that airfield.
1 SIGMET reported for the London FIR (EGTT) :
 
Severe mountain waves
EGTT SIGMET 01 VALID 190605/191000 EGRR
EGTT LONDON FIR SEV MTW FCST WI N5500 E00200 - N5330 E00200 - N5330 W00300 - N5500 W00500 - N5500 E00200 FL040/240 STNR NC=



MET'MAP, your aeronautical weather chart ! - Copyright ORBIFLY December 2007 - Disclaimer

ORBIFLY MET'MAP TEAM :

Programming & Development : Alexandra Zaïnal
Concept & Development : Baudouin d'Aumeries
Co-Development & Prog : Marc-Olivier Méhu
Technical & hardware support : Manuel Goepfert

Contact : metmap@orbifly.com




SOURCES & CREDITS :

   NOAA